createdAt,value
2023-04-15T00:01:06.994Z,100469.34
2023-04-15T00:03:34.551Z,100443.06
2023-04-15T00:06:02.386Z,100453.13
2023-04-15T00:08:30.140Z,100461.25
2023-04-15T00:10:59.367Z,100436.19
2023-04-15T00:13:26.316Z,100453.22
2023-04-15T00:15:53.249Z,100444.88
2023-04-15T00:18:20.188Z,100453.75
2023-04-15T00:20:47.115Z,100452.28
2023-04-15T00:23:14.090Z,100450.69
2023-04-15T00:25:41.109Z,100445.19
2023-04-15T00:28:08.630Z,100434.34
2023-04-15T00:30:35.545Z,100451.63
2023-04-15T00:33:02.531Z,100432.97
2023-04-15T00:35:32.540Z,100431.63
2023-04-15T00:37:59.868Z,100439.28
2023-04-15T00:40:27.887Z,100445.53
2023-04-15T00:42:55.126Z,100435.13
2023-04-15T00:45:22.491Z,100443.94
2023-04-15T00:47:49.779Z,100427.44
2023-04-15T00:50:16.866Z,100430.41
2023-04-15T00:52:44.375Z,100422.19
2023-04-15T00:55:11.718Z,100448.63
2023-04-15T00:57:39.924Z,100419.59
2023-04-15T01:00:11.869Z,100431.19
2023-04-15T01:02:39.549Z,100422.72
2023-04-15T01:05:07.732Z,100442.34
2023-04-15T01:07:34.650Z,100429.25
2023-04-15T01:10:04.421Z,100436.56
2023-04-15T01:12:33.216Z,100412.19
2023-04-15T01:15:00.801Z,100411.41
2023-04-15T01:17:28.210Z,100416.91
2023-04-15T01:19:59.865Z,100429.00
2023-04-15T01:22:28.672Z,100432.97
2023-04-15T01:25:02.375Z,100436.72
2023-04-15T01:27:31.212Z,100429.22
2023-04-15T01:29:58.472Z,100426.03
2023-04-15T01:32:25.627Z,100412.41
2023-04-15T01:34:52.622Z,100427.84
2023-04-15T01:37:24.356Z,100435.47
2023-04-15T01:39:51.603Z,100421.31
2023-04-15T01:42:18.502Z,100442.31
2023-04-15T01:44:45.383Z,100428.38
2023-04-15T01:47:12.607Z,100434.69
2023-04-15T01:49:39.564Z,100428.25
2023-04-15T01:52:06.651Z,100428.69
2023-04-15T01:54:33.816Z,100434.13
2023-04-15T01:57:00.747Z,100426.56
2023-04-15T01:59:28.855Z,100434.28
2023-04-15T02:01:56.179Z,100426.56
2023-04-15T02:04:23.638Z,100398.47
2023-04-15T02:06:50.532Z,100408.66
2023-04-15T02:09:17.763Z,100420.97
2023-04-15T02:11:46.129Z,100418.94
2023-04-15T02:14:13.313Z,100421.41
2023-04-15T02:16:40.553Z,100420.72
2023-04-15T02:19:08.097Z,100402.22
2023-04-15T02:21:37.931Z,100426.09
2023-04-15T02:24:04.979Z,100430.91
2023-04-15T02:26:34.788Z,100438.00
2023-04-15T02:29:01.819Z,100445.91
2023-04-15T02:31:28.983Z,100429.44
2023-04-15T02:33:56.072Z,100429.44
2023-04-15T02:36:23.903Z,100442.72
2023-04-15T02:38:50.926Z,100418.47
2023-04-15T02:41:18.770Z,100443.03
2023-04-15T02:43:46.094Z,100430.81
2023-04-15T02:46:14.828Z,100455.03
2023-04-15T02:48:42.133Z,100454.19
2023-04-15T02:51:21.323Z,100447.88
2023-04-15T02:53:49.418Z,100441.44
2023-04-15T02:56:17.307Z,100441.94
2023-04-15T02:58:45.713Z,100444.94
2023-04-15T03:01:14.583Z,100421.03
2023-04-15T03:03:42.112Z,100422.84
2023-04-15T03:06:09.386Z,100430.44
2023-04-15T03:08:37.029Z,100433.13
2023-04-15T03:11:04.832Z,100425.09
2023-04-15T03:13:33.065Z,100440.53
2023-04-15T03:16:05.644Z,100416.84
2023-04-15T03:18:33.006Z,100431.22
2023-04-15T03:21:02.919Z,100418.69
2023-04-15T03:23:32.980Z,100420.16
2023-04-15T03:26:03.133Z,100414.56
2023-04-15T03:28:32.700Z,100430.53
2023-04-15T03:31:00.610Z,100434.94
2023-04-15T03:33:27.610Z,100429.69
2023-04-15T03:35:54.782Z,100424.22
2023-04-15T03:38:21.638Z,100414.25
2023-04-15T03:40:48.641Z,100407.69
2023-04-15T03:43:15.635Z,100414.44
2023-04-15T03:45:42.639Z,100433.44
2023-04-15T03:48:17.316Z,100414.38
2023-04-15T03:50:45.284Z,100411.31
2023-04-15T03:53:12.321Z,100430.16
2023-04-15T03:55:39.229Z,100434.13
2023-04-15T03:58:06.505Z,100447.13
2023-04-15T04:00:33.671Z,100439.06
2023-04-15T04:03:00.753Z,100448.81
2023-04-15T04:05:27.818Z,100441.78
2023-04-15T04:07:54.761Z,100448.75
2023-04-15T04:10:21.697Z,100435.81
2023-04-15T04:12:48.683Z,100423.06
2023-04-15T04:15:15.922Z,100435.69
2023-04-15T04:17:42.942Z,100432.84
2023-04-15T04:20:10.036Z,100453.25
2023-04-15T04:22:40.710Z,100432.25
2023-04-15T04:25:10.074Z,100424.00
2023-04-15T04:27:37.188Z,100438.06
2023-04-15T04:30:06.442Z,100460.50
2023-04-15T04:32:33.492Z,100453.75
2023-04-15T04:35:00.406Z,100441.59
2023-04-15T04:37:27.339Z,100468.16
2023-04-15T04:39:54.289Z,100456.09
2023-04-15T04:42:21.217Z,100454.53
2023-04-15T04:44:48.119Z,100425.38
2023-04-15T04:47:15.144Z,100450.88
2023-04-15T04:49:42.132Z,100454.78
2023-04-15T04:52:09.256Z,100456.09
2023-04-15T04:54:36.225Z,100452.22
2023-04-15T04:57:03.155Z,100445.28
2023-04-15T04:59:30.010Z,100441.19
2023-04-15T05:01:57.101Z,100440.41
2023-04-15T05:04:24.085Z,100453.59
2023-04-15T05:06:50.955Z,100461.50
2023-04-15T05:09:17.892Z,100476.19
2023-04-15T05:11:44.762Z,100458.84
2023-04-15T05:14:11.735Z,100472.94
2023-04-15T05:16:38.618Z,100444.03
2023-04-15T05:19:05.623Z,100466.81
2023-04-15T05:21:32.576Z,100456.09
2023-04-15T05:23:59.496Z,100481.13
2023-04-15T05:26:27.538Z,100471.97
2023-04-15T05:28:55.026Z,100479.19
2023-04-15T05:31:21.972Z,100478.59
2023-04-15T05:33:48.937Z,100479.25
2023-04-15T05:36:16.120Z,100490.31
2023-04-15T05:38:43.074Z,100475.50
2023-04-15T05:41:09.996Z,100468.09
2023-04-15T05:43:36.967Z,100485.16
2023-04-15T05:46:03.938Z,100467.44
2023-04-15T05:48:30.862Z,100482.31
2023-04-15T05:50:58.006Z,100456.91
2023-04-15T05:53:25.023Z,100475.75
2023-04-15T05:55:52.134Z,100479.72
2023-04-15T05:58:19.002Z,100472.53
2023-04-15T06:00:46.304Z,100471.81
2023-04-15T06:03:13.532Z,100482.91
2023-04-15T06:05:40.726Z,100473.47
2023-04-15T06:08:08.300Z,100494.06
2023-04-15T06:10:36.772Z,100463.19
2023-04-15T06:13:04.329Z,100491.19
2023-04-15T06:15:31.755Z,100497.53
2023-04-15T06:17:58.744Z,100513.41
2023-04-15T06:20:26.116Z,100512.75
2023-04-15T06:22:53.132Z,100496.22
2023-04-15T06:25:20.102Z,100508.31
2023-04-15T06:27:47.029Z,100497.75
2023-04-15T06:30:14.185Z,100518.38
2023-04-15T06:32:41.250Z,100498.03
2023-04-15T06:35:08.732Z,100500.28
2023-04-15T06:37:35.630Z,100506.28
2023-04-15T06:40:03.238Z,100503.31
2023-04-15T06:42:30.625Z,100479.31
2023-04-15T06:44:57.529Z,100498.41
2023-04-15T06:47:24.535Z,100507.81
2023-04-15T06:49:51.949Z,100516.44
2023-04-15T06:52:19.378Z,100515.22
2023-04-15T06:54:46.399Z,100493.38
2023-04-15T06:57:13.326Z,100519.22
2023-04-15T06:59:40.368Z,100513.47
2023-04-15T07:02:12.570Z,100514.41
2023-04-15T07:04:40.278Z,100500.16
2023-04-15T07:07:08.136Z,100492.97
2023-04-15T07:09:35.075Z,100493.31
2023-04-15T07:12:02.018Z,100493.31
2023-04-15T07:14:29.510Z,100492.22
2023-04-15T07:16:56.541Z,100515.81
2023-04-15T07:19:23.554Z,100502.50
2023-04-15T07:21:50.490Z,100517.78
2023-04-15T07:24:19.653Z,100517.25
2023-04-15T07:26:47.157Z,100498.06
2023-04-15T07:29:14.067Z,100503.06
2023-04-15T07:31:42.244Z,100518.31
2023-04-15T07:34:09.214Z,100498.88
2023-04-15T07:36:36.844Z,100518.56
2023-04-15T07:39:04.368Z,100507.78
2023-04-15T07:41:31.654Z,100511.31
2023-04-15T07:43:58.895Z,100525.78
2023-04-15T07:46:27.299Z,100509.78
2023-04-15T07:48:54.472Z,100511.47
2023-04-15T07:51:21.595Z,100513.22
2023-04-15T07:53:49.393Z,100501.03
2023-04-15T07:56:16.840Z,100501.56
2023-04-15T07:58:43.711Z,100534.28
2023-04-15T08:01:10.680Z,100518.75
2023-04-15T08:03:37.927Z,100518.19
2023-04-15T08:06:05.007Z,100526.25
2023-04-15T08:08:32.075Z,100501.78
2023-04-15T08:10:59.169Z,100493.75
2023-04-15T08:13:26.999Z,100542.00
2023-04-15T08:16:20.486Z,100532.16
2023-04-15T08:18:49.051Z,100520.25
2023-04-15T08:21:17.605Z,100530.31
2023-04-15T08:23:46.484Z,100522.88
2023-04-15T08:26:14.204Z,100524.75
2023-04-15T08:28:42.558Z,100538.09
2023-04-15T08:31:09.685Z,100536.16
2023-04-15T08:33:36.860Z,100531.25
2023-04-15T08:36:04.449Z,100528.13
2023-04-15T08:38:31.805Z,100531.09
2023-04-15T08:41:04.386Z,100535.75
2023-04-15T08:43:35.801Z,100549.47
2023-04-15T08:46:04.417Z,100552.13
2023-04-15T08:48:35.732Z,100547.81
2023-04-15T08:51:03.034Z,100542.34
2023-04-15T08:53:30.819Z,100532.84
2023-04-15T08:56:01.359Z,100545.16
2023-04-15T08:58:28.579Z,100543.63
2023-04-15T09:00:56.684Z,100532.13
2023-04-15T09:03:24.982Z,100549.16
2023-04-15T09:05:53.272Z,100534.34
2023-04-15T09:08:20.332Z,100555.31
2023-04-15T09:10:47.592Z,100540.69
2023-04-15T09:13:14.848Z,100544.69
2023-04-15T09:15:41.857Z,100550.03
2023-04-15T09:18:12.007Z,100532.94
2023-04-15T09:20:45.143Z,100558.06
2023-04-15T09:23:14.465Z,100558.38
2023-04-15T09:25:42.619Z,100557.66
2023-04-15T09:28:09.576Z,100538.34
2023-04-15T09:30:37.400Z,100568.59
2023-04-15T09:33:08.187Z,100544.63
2023-04-15T09:35:38.420Z,100539.53
2023-04-15T09:38:07.349Z,100569.22
2023-04-15T09:40:41.005Z,100566.09
2023-04-15T09:43:10.720Z,100587.75
2023-04-15T09:45:37.832Z,100576.56
2023-04-15T09:48:27.031Z,100581.66
2023-04-15T09:50:54.757Z,100547.63
2023-04-15T09:53:24.270Z,100570.22
2023-04-15T09:56:00.758Z,100572.22
2023-04-15T09:58:29.348Z,100571.97
2023-04-15T10:00:58.451Z,100564.03
2023-04-15T10:03:29.970Z,100569.69
2023-04-15T10:05:59.661Z,100581.41
2023-04-15T10:08:33.678Z,100567.44
2023-04-15T10:11:04.982Z,100574.31
2023-04-15T10:13:37.284Z,100553.72
2023-04-15T10:16:14.779Z,100558.63
2023-04-15T10:18:45.629Z,100578.50
2023-04-15T10:21:14.037Z,100577.53
2023-04-15T10:23:41.502Z,100563.97
2023-04-15T10:26:12.270Z,100582.59
2023-04-15T10:28:39.501Z,100554.47
2023-04-15T10:31:07.520Z,100580.44
2023-04-15T10:33:35.687Z,100584.28
2023-04-15T10:36:02.685Z,100590.78
2023-04-15T10:38:37.457Z,100589.34
2023-04-15T10:41:31.259Z,100590.97
2023-04-15T10:44:04.442Z,100605.84
2023-04-15T10:46:40.025Z,100591.03
2023-04-15T10:49:17.122Z,100602.28
2023-04-15T10:51:48.041Z,100598.19
2023-04-15T10:54:25.258Z,100596.97
2023-04-15T10:57:07.018Z,100604.56
2023-04-15T10:59:38.616Z,100572.81
2023-04-15T11:02:07.624Z,100603.56
2023-04-15T11:05:00.797Z,100612.25
2023-04-15T11:07:48.688Z,100599.88
2023-04-15T11:10:18.501Z,100612.28
2023-04-15T11:12:46.806Z,100592.38
2023-04-15T11:15:43.275Z,100613.91
2023-04-15T11:18:36.302Z,100613.25
2023-04-15T11:21:07.097Z,100622.19
2023-04-15T11:23:43.294Z,100623.38
2023-04-15T11:26:12.422Z,100611.72
2023-04-15T11:28:42.397Z,100626.31
2023-04-15T11:31:19.892Z,100628.13
2023-04-15T11:34:02.239Z,100616.41
2023-04-15T11:36:32.248Z,100625.50
2023-04-15T11:39:00.415Z,100616.66
2023-04-15T11:41:27.356Z,100637.69
2023-04-15T11:43:54.379Z,100640.53
2023-04-15T11:46:22.935Z,100631.50
2023-04-15T11:48:50.003Z,100639.06
2023-04-15T11:51:17.052Z,100657.66
2023-04-15T11:53:47.171Z,100652.41
2023-04-15T11:56:25.563Z,100639.66
2023-04-15T11:58:56.886Z,100645.78
2023-04-15T12:01:39.813Z,100642.09
2023-04-15T12:04:22.560Z,100645.50
2023-04-15T12:06:51.981Z,100650.19
2023-04-15T12:09:20.404Z,100650.72
2023-04-15T12:11:51.212Z,100661.28
2023-04-15T12:14:32.011Z,100656.31
2023-04-15T12:17:02.959Z,100671.59
2023-04-15T12:19:34.881Z,100663.75
2023-04-15T12:22:13.248Z,100671.91
2023-04-15T12:24:41.015Z,100656.53
2023-04-15T12:27:11.171Z,100677.44
2023-04-15T12:29:41.890Z,100674.59
2023-04-15T12:32:16.598Z,100685.50
2023-04-15T12:34:50.446Z,100692.72
2023-04-15T12:37:17.745Z,100697.31
2023-04-15T12:39:48.794Z,100672.34
2023-04-15T12:42:17.366Z,100680.41
2023-04-15T12:44:44.381Z,100672.13
2023-04-15T12:47:12.596Z,100669.78
2023-04-15T12:49:40.131Z,100700.41
2023-04-15T12:52:07.090Z,100693.81
2023-04-15T12:54:34.725Z,100664.63
2023-04-15T12:57:04.670Z,100703.09
2023-04-15T12:59:33.613Z,100716.94
2023-04-15T13:02:01.216Z,100713.38
2023-04-15T13:04:30.745Z,100678.13
2023-04-15T13:06:58.126Z,100704.63
2023-04-15T13:09:25.152Z,100711.72
2023-04-15T13:11:52.758Z,100709.50
2023-04-15T13:14:20.469Z,100714.97
2023-04-15T13:16:47.420Z,100694.38
2023-04-15T13:19:14.334Z,100714.88
2023-04-15T13:21:41.533Z,100713.16
2023-04-15T13:24:09.420Z,100728.91
2023-04-15T13:26:36.478Z,100725.31
2023-04-15T13:29:04.500Z,100733.75
2023-04-15T13:31:31.449Z,100722.59
2023-04-15T13:33:58.390Z,100749.03
2023-04-15T13:36:26.390Z,100744.63
2023-04-15T13:38:53.351Z,100732.78
2023-04-15T13:41:21.188Z,100755.84
2023-04-15T13:43:48.105Z,100760.78
2023-04-15T13:46:15.300Z,100760.88
2023-04-15T13:48:42.462Z,100751.41
2023-04-15T13:51:09.392Z,100762.88
2023-04-15T13:53:38.818Z,100775.34
2023-04-15T13:56:10.295Z,100776.56
2023-04-15T13:58:38.261Z,100752.16
2023-04-15T14:01:06.938Z,100771.59
2023-04-15T14:03:38.172Z,100782.94
2023-04-15T14:06:06.342Z,100775.66
2023-04-15T14:08:33.502Z,100761.28
2023-04-15T14:11:00.758Z,100765.56
2023-04-15T14:13:27.698Z,100792.88
2023-04-15T14:15:54.705Z,100797.97
2023-04-15T14:18:21.663Z,100771.81
2023-04-15T14:20:48.661Z,100783.09
2023-04-15T14:23:15.665Z,100804.28
2023-04-15T14:25:42.553Z,100800.53
2023-04-15T14:28:09.498Z,100788.06
2023-04-15T14:30:36.487Z,100807.56
2023-04-15T14:33:04.085Z,100813.78
2023-04-15T14:35:31.329Z,100800.44
2023-04-15T14:37:58.368Z,100797.88
2023-04-15T14:40:28.494Z,100799.81
2023-04-15T14:42:55.519Z,100814.97
2023-04-15T14:45:23.932Z,100823.66
2023-04-15T14:47:51.081Z,100807.44
2023-04-15T14:50:18.179Z,100831.47
2023-04-15T14:52:45.492Z,100825.81
2023-04-15T14:55:15.175Z,100823.69
2023-04-15T14:57:43.080Z,100825.50
2023-04-15T15:00:13.862Z,100848.09
2023-04-15T15:02:44.272Z,100843.91
2023-04-15T15:05:12.249Z,100823.78
2023-04-15T15:07:40.808Z,100822.31
2023-04-15T15:10:08.167Z,100837.44
2023-04-15T15:12:35.108Z,100845.81
2023-04-15T15:15:12.319Z,100854.38
2023-04-15T15:17:43.180Z,100846.47
2023-04-15T15:20:10.456Z,100840.69
2023-04-15T15:22:37.380Z,100850.41
2023-04-15T15:25:04.887Z,100860.13
2023-04-15T15:27:32.065Z,100840.78
2023-04-15T15:29:59.529Z,100852.34
2023-04-15T15:32:26.533Z,100857.72
2023-04-15T15:34:53.534Z,100855.13
2023-04-15T15:37:20.399Z,100838.47
2023-04-15T15:39:47.850Z,100854.91
2023-04-15T15:42:14.783Z,100869.19
2023-04-15T15:44:41.703Z,100865.66
2023-04-15T15:47:08.801Z,100857.56
2023-04-15T15:49:35.732Z,100862.09
2023-04-15T15:52:02.702Z,100873.84
2023-04-15T15:54:29.793Z,100859.28
2023-04-15T15:56:57.509Z,100867.41
2023-04-15T15:59:25.497Z,100895.00
2023-04-15T16:01:52.600Z,100895.03
2023-04-15T16:04:20.016Z,100889.50
2023-04-15T16:06:47.293Z,100876.41
2023-04-15T16:09:14.275Z,100898.34
2023-04-15T16:11:41.592Z,100884.47
2023-04-15T16:14:08.499Z,100900.78
2023-04-15T16:16:35.604Z,100908.50
2023-04-15T16:19:02.889Z,100900.94
2023-04-15T16:21:30.622Z,100892.84
2023-04-15T16:23:57.653Z,100918.69
2023-04-15T16:26:24.577Z,100866.75
2023-04-15T16:28:51.515Z,100905.69
2023-04-15T16:31:18.465Z,100894.63
2023-04-15T16:33:45.558Z,100914.66
2023-04-15T16:36:12.440Z,100917.34
2023-04-15T16:38:39.414Z,100915.50
2023-04-15T16:41:06.299Z,100909.03
2023-04-15T16:43:33.209Z,100916.63
2023-04-15T16:46:00.183Z,100921.25
2023-04-15T16:48:52.273Z,100927.63
2023-04-15T16:51:19.334Z,100933.41
2023-04-15T16:53:46.354Z,100933.13
2023-04-15T16:56:13.254Z,100936.38
2023-04-15T16:58:40.272Z,100912.19
2023-04-15T17:01:07.464Z,100927.44
2023-04-15T17:03:34.509Z,100933.28
2023-04-15T17:06:01.628Z,100939.41
2023-04-15T17:08:28.490Z,100952.47
2023-04-15T17:10:55.438Z,100949.75
2023-04-15T17:13:22.325Z,100917.63
2023-04-15T17:15:49.259Z,100960.72
2023-04-15T17:18:16.164Z,100958.28
2023-04-15T17:20:43.122Z,100962.13
2023-04-15T17:23:10.115Z,100955.84
2023-04-15T17:25:37.857Z,100935.75
2023-04-15T17:28:05.086Z,100945.91
2023-04-15T17:30:33.278Z,100961.03
2023-04-15T17:33:00.801Z,100953.44
2023-04-15T17:35:27.865Z,100941.00
2023-04-15T17:37:54.928Z,100954.91
2023-04-15T17:40:22.042Z,100943.59
2023-04-15T17:42:49.345Z,100948.25
2023-04-15T17:45:16.336Z,100952.78
2023-04-15T17:47:43.499Z,100972.44
2023-04-15T17:50:10.644Z,100969.94
2023-04-15T17:52:37.540Z,100962.00
2023-04-15T17:55:05.063Z,100945.16
2023-04-15T17:57:54.604Z,100960.09
2023-04-15T18:00:19.570Z,100990.00
2023-04-15T18:02:48.853Z,100980.72
2023-04-15T18:05:16.185Z,100972.72
2023-04-15T18:07:43.379Z,100986.34
2023-04-15T18:10:11.031Z,100961.19
2023-04-15T18:12:38.097Z,100997.81
2023-04-15T18:15:05.734Z,101004.94
2023-04-15T18:17:32.782Z,101001.94
2023-04-15T18:19:59.699Z,100965.69
2023-04-15T18:22:26.636Z,101024.56
2023-04-15T18:24:54.584Z,101022.88
2023-04-15T18:27:21.648Z,101000.22
2023-04-15T18:29:48.640Z,101003.84
2023-04-15T18:32:15.757Z,101020.09
2023-04-15T18:34:42.924Z,101031.19
2023-04-15T18:37:09.953Z,101041.66
2023-04-15T18:39:36.897Z,101044.88
2023-04-15T18:42:03.967Z,101040.03
2023-04-15T18:44:30.858Z,101048.84
2023-04-15T18:46:58.253Z,101047.13
2023-04-15T18:49:27.085Z,101050.25
2023-04-15T18:51:54.187Z,101055.13
2023-04-15T18:54:21.152Z,101073.84
2023-04-15T18:56:48.084Z,101058.56
2023-04-15T18:59:29.589Z,101060.91
2023-04-15T19:01:59.308Z,101060.06
2023-04-15T19:04:28.817Z,101061.91
2023-04-15T19:06:56.281Z,101030.78
2023-04-15T19:09:23.284Z,101054.78
2023-04-15T19:11:50.316Z,101089.34
2023-04-15T19:14:18.113Z,101091.59
2023-04-15T19:16:45.069Z,101070.06
2023-04-15T19:19:14.388Z,101088.06
2023-04-15T19:21:41.700Z,101102.59
2023-04-15T19:24:08.591Z,101082.09
2023-04-15T19:26:36.952Z,101056.50
2023-04-15T19:29:04.182Z,101080.94
2023-04-15T19:31:31.498Z,101087.06
2023-04-15T19:33:58.462Z,101101.69
2023-04-15T19:36:25.374Z,101100.63
2023-04-15T19:38:52.358Z,101125.50
2023-04-15T19:41:19.338Z,101125.28
2023-04-15T19:43:46.338Z,101134.78
2023-04-15T19:46:13.708Z,101133.03
2023-04-15T19:48:40.697Z,101130.22
2023-04-15T19:51:07.694Z,101133.34
2023-04-15T19:53:34.635Z,101125.84
2023-04-15T19:56:01.898Z,101127.53
2023-04-15T19:58:29.456Z,101118.94
2023-04-15T20:00:57.145Z,101143.59
2023-04-15T20:03:24.300Z,101142.66
2023-04-15T20:05:51.272Z,101143.81
2023-04-15T20:08:18.289Z,101144.66
2023-04-15T20:10:45.186Z,101131.31
2023-04-15T20:13:12.089Z,101133.56
2023-04-15T20:15:39.012Z,101127.66
2023-04-15T20:18:05.998Z,101141.53
2023-04-15T20:20:34.711Z,101157.16
2023-04-15T20:23:01.609Z,101133.69
2023-04-15T20:25:28.584Z,101138.22
2023-04-15T20:27:56.767Z,101135.28
2023-04-15T20:30:23.703Z,101143.78
2023-04-15T20:32:50.742Z,101157.69
2023-04-15T20:35:17.818Z,101132.50
2023-04-15T20:37:45.017Z,101157.47
2023-04-15T20:40:14.120Z,101164.50
2023-04-15T20:42:43.631Z,101162.97
2023-04-15T20:45:10.712Z,101154.88
2023-04-15T20:47:37.754Z,101149.69
2023-04-15T20:50:05.086Z,101136.75
2023-04-15T20:52:31.948Z,101156.38
2023-04-15T20:54:58.833Z,101155.47
2023-04-15T20:57:26.047Z,101154.53
2023-04-15T20:59:53.069Z,101175.63
2023-04-15T21:02:20.135Z,101175.19
2023-04-15T21:05:13.076Z,101177.00
2023-04-15T21:07:40.973Z,101166.56
2023-04-15T21:10:08.141Z,101187.00
2023-04-15T21:12:35.996Z,101190.69
2023-04-15T21:15:03.129Z,101155.97
2023-04-15T21:17:30.141Z,101177.00
2023-04-15T21:19:57.092Z,101189.59
2023-04-15T21:22:23.968Z,101182.38
2023-04-15T21:24:50.863Z,101169.78
2023-04-15T21:27:17.964Z,101174.53
2023-04-15T21:29:45.014Z,101162.38
2023-04-15T21:32:12.322Z,101193.72
2023-04-15T21:34:39.334Z,101186.50
2023-04-15T21:37:06.242Z,101198.69
2023-04-15T21:39:33.211Z,101204.06
2023-04-15T21:42:00.435Z,101191.09
2023-04-15T21:44:27.459Z,101205.78
2023-04-15T21:46:54.409Z,101195.53
2023-04-15T21:49:21.884Z,101212.34
2023-04-15T21:51:50.317Z,101218.88
2023-04-15T21:54:17.232Z,101226.84
2023-04-15T21:56:44.219Z,101207.13
2023-04-15T21:59:11.189Z,101209.25
2023-04-15T22:01:38.179Z,101214.78
2023-04-15T22:04:11.473Z,101207.63
2023-04-15T22:06:38.552Z,101236.31
2023-04-15T22:09:05.533Z,101238.19
2023-04-15T22:11:32.445Z,101233.03
2023-04-15T22:13:59.615Z,101213.84
2023-04-15T22:16:26.986Z,101245.97
2023-04-15T22:18:57.217Z,101231.97
2023-04-15T22:21:24.029Z,101255.03
2023-04-15T22:23:52.023Z,101235.84
2023-04-15T22:26:18.986Z,101233.31
2023-04-15T22:28:46.073Z,101250.91
2023-04-15T22:31:13.676Z,101254.00
2023-04-15T22:33:40.643Z,101257.41
2023-04-15T22:36:07.660Z,101232.81
2023-04-15T22:38:34.588Z,101260.06
2023-04-15T22:41:01.651Z,101237.00
2023-04-15T22:43:28.550Z,101253.44
2023-04-15T22:45:56.483Z,101249.91
2023-04-15T22:48:23.388Z,101258.22
2023-04-15T22:50:50.489Z,101264.09
2023-04-15T22:53:17.954Z,101271.50
2023-04-15T22:55:48.762Z,101276.22
2023-04-15T22:58:17.029Z,101287.88
2023-04-15T23:00:44.553Z,101269.88
2023-04-15T23:03:11.594Z,101264.09
2023-04-15T23:05:40.108Z,101290.97
2023-04-15T23:08:07.581Z,101278.81
2023-04-15T23:10:34.524Z,101253.78
2023-04-15T23:13:01.476Z,101293.97
2023-04-15T23:15:28.510Z,101280.47
2023-04-15T23:17:55.464Z,101280.91
2023-04-15T23:20:22.655Z,101281.53
2023-04-15T23:22:49.551Z,101293.44
2023-04-15T23:25:16.568Z,101283.94
2023-04-15T23:27:43.509Z,101276.41
2023-04-15T23:30:10.562Z,101269.47
2023-04-15T23:32:37.581Z,101274.66
2023-04-15T23:35:05.000Z,101292.53
2023-04-15T23:37:32.138Z,101262.31
2023-04-15T23:39:59.051Z,101275.16
2023-04-15T23:42:26.339Z,101291.78
2023-04-15T23:44:53.236Z,101292.25
2023-04-15T23:47:21.657Z,101295.13
2023-04-15T23:49:48.586Z,101288.25
2023-04-15T23:52:15.739Z,101277.13
2023-04-15T23:54:42.649Z,101296.44
2023-04-15T23:57:09.575Z,101284.47
2023-04-15T23:59:36.615Z,101308.44
